Terminal Aerodrome Forecast
Issued by NWS Wichita, KS

Home | Current Version | Previous Version | Graphics & Text | Print | Product List | Glossary On
Versions: 1 2 3 4 5 6 7 8 9 10 11 12 13 14 15 16 17 18 19 20 21 22 23
000
FTUS43 KICT 232337
TAFICT
TAF
KICT 232337Z 2400/2424 13009KT P6SM SCT030 BKN150
     FM240300 14013KT P6SM OVC025
     FM240500 14013KT 4SM TSRA OVC013CB
     FM240800 15013KT 2SM -DZ BR OVC004=

USA.gov is the U.S. government's official web portal to all federal, state and local government web resources and services.